Time;durP1;ratioP1;P1;durP2;ratioP2;P2;SDS_P1;SDS_P2;PMS_P1;PMS_P2;Temp;Humidity;BMP_temperature;BMP_pressure;BME280_temperature;BME280_humidity;BME280_pressure;Samples;Min_cycle;Max_cycle;Signal;HPM_P1;HPM_P2
2023/04/30 00:00:54;;;;;;;8.13;7.30;;;;;;;15.31;76.52;148922.31;5086790;28;20548;-49
2023/04/30 00:04:07;;;;;;;14.27;7.73;;;;;;;15.34;76.78;148929.91;5089857;28;20215;-47
2023/04/30 00:10:05;;;;;;;;;;;;;;;;;;;;;
2023/04/30 00:13:05;;;;;;;8.37;7.47;;;;;;;15.35;76.31;148933.66;5085318;28;20211;-47
2023/04/30 00:16:04;;;;;;;8.67;7.87;;;;;;;15.44;76.09;148955.16;5088730;28;20203;-47
2023/04/30 00:18:51;;;;;;;9.63;8.10;;;;;;;15.35;76.13;148933.66;5088563;28;20199;-48
2023/04/30 00:21:42;;;;;;;10.30;8.30;;;;;;;15.38;76.68;148939.97;5089449;28;20217;-48
2023/04/30 00:27:47;;;;;;;11.30;9.50;;;;;;;15.48;75.50;148966.47;5088494;28;20852;-51
2023/04/30 00:31:09;;;;;;;17.23;9.97;;;;;;;15.51;75.64;148974.06;5088541;28;20240;-53
2023/04/30 00:40:05;;;;;;;9.30;8.50;;;;;;;15.20;77.79;148895.84;5085427;28;20217;-50
2023/04/30 00:49:12;;;;;;;11.87;8.43;;;;;;;15.36;77.05;148934.91;5088917;28;20191;-47
2023/04/30 00:55:11;;;;;;;13.40;8.63;;;;;;;15.41;77.61;148947.56;5087354;28;20256;-51
2023/04/30 01:00:58;;;;;;;9.33;8.53;;;;;;;15.29;78.80;148918.53;5085599;28;20199;-48
2023/04/30 01:10:07;;;;;;;11.73;9.47;;;;;;;15.43;74.39;148953.88;5088620;28;20214;-47
2023/04/30 01:16:02;;;;;;;9.53;7.73;;;;;;;15.51;72.17;148974.06;5086720;28;20213;-46
2023/04/30 01:25:51;;;;;;;10.70;6.73;;;;;;;15.45;67.65;148958.94;5084801;28;20203;-49
2023/04/30 01:32:15;;;;;;;8.17;6.83;;;;;;;15.30;66.69;148921.06;5082033;28;20596;-47
2023/04/30 01:35:47;;;;;;;7.87;7.10;;;;;;;15.23;66.08;148903.41;5079346;28;20203;-51
2023/04/30 01:49:10;;;;;;;;;;;;;;;;;;;;;
2023/04/30 01:52:08;;;;;;;8.30;5.40;;;;;;;14.87;61.51;148813.81;5127336;27;20219;-51
2023/04/30 02:04:03;;;;;;;4.97;4.57;;;;;;;14.73;62.95;148779.75;5124503;27;20193;-52
2023/04/30 02:06:55;;;;;;;5.40;5.00;;;;;;;14.63;63.25;148754.53;5124126;27;20697;-51
2023/04/30 02:10:00;;;;;;;5.37;4.90;;;;;;;14.67;63.09;148763.38;5127411;27;20190;-51
2023/04/30 02:15:54;;;;;;;7.20;5.17;;;;;;;14.61;63.98;148749.47;5123646;27;20201;-51
2023/04/30 02:19:02;;;;;;;5.93;5.30;;;;;;;14.63;64.27;148754.53;5125815;27;20186;-51
2023/04/30 02:21:59;;;;;;;8.20;5.63;;;;;;;14.57;64.23;148739.38;5118700;27;20207;-51
2023/04/30 02:31:20;;;;;;;6.77;6.10;;;;;;;14.67;65.26;148763.38;5123053;27;20269;-47
2023/04/30 02:37:36;;;;;;;6.23;5.63;;;;;;;14.67;64.42;148763.38;5121624;27;20252;-47
2023/04/30 02:49:38;;;;;;;6.03;5.33;;;;;;;14.82;64.59;148802.44;5090658;28;20203;-47
2023/04/30 02:52:43;;;;;;;7.43;5.90;;;;;;;14.87;64.26;148815.09;5091491;28;20585;-47
2023/04/30 02:55:41;;;;;;;5.40;5.00;;;;;;;14.90;64.27;148821.34;5093126;28;20219;-45
2023/04/30 03:02:07;;;;;;;5.47;4.97;;;;;;;14.82;62.97;148801.19;5078003;28;20249;-47
2023/04/30 03:08:14;;;;;;;5.73;5.23;;;;;;;14.76;63.77;148786.06;5078075;28;20223;-51
2023/04/30 03:14:07;;;;;;;5.90;5.30;;;;;;;14.73;65.51;148778.50;5078313;28;20274;-46
2023/04/30 03:17:14;;;;;;;6.67;5.73;;;;;;;14.73;66.50;148778.50;5079383;28;20200;-48
2023/04/30 03:20:13;;;;;;;8.87;6.27;;;;;;;14.52;67.94;148726.78;5078986;28;20188;-46
2023/04/30 03:23:06;;;;;;;11.70;6.10;;;;;;;14.41;69.65;148700.31;5074970;28;20224;-51
2023/04/30 03:29:16;;;;;;;9.70;6.63;;;;;;;14.29;75.75;148669.97;5069663;28;20244;-51
2023/04/30 03:32:15;;;;;;;11.03;7.33;;;;;;;14.24;77.40;148657.34;5071728;28;20207;-50
2023/04/30 03:35:08;;;;;;;10.30;7.30;;;;;;;14.26;78.82;148662.41;5071477;28;20196;-51
2023/04/30 03:37:56;;;;;;;11.63;8.47;;;;;;;14.19;82.17;148644.78;5071441;28;20200;-48
2023/04/30 03:40:36;;;;;;;10.53;8.27;;;;;;;14.05;84.00;148609.47;5071402;28;20239;-51
2023/04/30 03:43:20;;;;;;;11.00;9.10;;;;;;;14.09;85.36;148620.81;5071616;28;20483;-49
2023/04/30 03:49:10;;;;;;;10.40;8.53;;;;;;;14.10;90.75;148622.09;5070505;28;20607;-50
2023/04/30 03:55:07;;;;;;;12.37;9.00;;;;;;;14.12;91.32;148628.34;5068252;28;20211;-50
2023/04/30 03:57:57;;;;;;;13.20;9.10;;;;;;;14.13;90.60;148629.63;5070838;28;20678;-46
2023/04/30 04:00:55;;;;;;;9.80;8.87;;;;;;;14.21;91.12;148648.56;5070851;28;20196;-50
2023/04/30 04:03:37;;;;;;;10.37;9.37;;;;;;;14.11;93.19;148624.56;5070339;28;20200;-50
2023/04/30 04:06:31;;;;;;;14.20;10.57;;;;;;;14.20;93.78;148647.31;5071021;28;20239;-50
2023/04/30 04:18:07;;;;;;;17.30;11.50;;;;;;;14.43;93.53;148704.09;5069142;28;20204;-51
2023/04/30 04:21:00;;;;;;;14.13;10.83;;;;;;;14.44;93.92;148706.63;5067581;28;20207;-51
2023/04/30 04:24:07;;;;;;;13.63;11.87;;;;;;;14.34;95.99;148681.31;5070442;28;20196;-51
2023/04/30 04:26:48;;;;;;;16.83;10.77;;;;;;;14.39;95.90;148695.25;5068448;28;20287;-50
2023/04/30 04:29:33;;;;;;;16.07;10.53;;;;;;;14.49;95.33;148720.47;5069025;28;20192;-45
2023/04/30 04:32:23;;;;;;;15.13;11.40;;;;;;;14.43;95.09;148705.34;5069622;28;20199;-45
2023/04/30 04:35:09;;;;;;;14.30;11.30;;;;;;;14.39;95.77;148695.25;5069504;28;20582;-45
2023/04/30 04:38:04;;;;;;;18.80;12.10;;;;;;;14.43;94.83;148705.34;5069244;28;20288;-45
2023/04/30 04:41:10;;;;;;;14.07;11.17;;;;;;;14.43;94.27;148705.34;5069631;28;20227;-45
2023/04/30 04:43:53;;;;;;;14.80;11.00;;;;;;;14.56;93.30;148735.63;5067342;28;20273;-45
2023/04/30 04:46:38;;;;;;;13.37;10.60;;;;;;;14.64;92.09;148755.78;5070176;28;20207;-46
2023/04/30 04:49:08;;;;;;;22.63;12.17;;;;;;;14.93;90.84;148827.69;5109848;28;20248;-45
2023/04/30 04:51:42;;;;;;;18.90;10.73;;;;;;;15.83;84.54;149052.38;5109591;28;20684;-46
2023/04/30 04:54:23;;;;;;;15.63;10.67;;;;;;;16.54;78.50;149229.16;5108876;28;20209;-48
2023/04/30 04:57:03;;;;;;;16.40;10.40;;;;;;;16.99;75.25;149341.66;5111059;28;20662;-52
2023/04/30 05:00:01;;;;;;;14.83;10.47;;;;;;;17.53;70.44;149475.59;5110387;28;20663;-52
2023/04/30 05:02:37;;;;;;;13.27;9.03;;;;;;;17.77;68.40;149536.34;5105997;28;20584;-52
2023/04/30 05:05:20;;;;;;;11.77;9.60;;;;;;;17.89;67.07;149566.69;5110001;28;20596;-48
2023/04/30 05:08:01;;;;;;;12.47;9.93;;;;;;;19.21;61.91;149895.59;5110346;28;20218;-49
2023/04/30 05:10:50;;;;;;;16.60;10.10;;;;;;;20.57;55.16;150236.28;5109347;28;20578;-53
2023/04/30 05:17:23;;;;;;;11.70;9.65;;;;;;;24.34;43.96;151178.91;5107700;28;20202;-49
2023/04/30 05:19:55;;;;;;;11.13;9.48;;;;;;;26.44;38.57;151703.88;5110002;28;20199;-47
2023/04/30 05:22:57;;;;;;;11.63;9.38;;;;;;;27.76;35.71;152036.03;5109873;28;20198;-48
2023/04/30 05:25:30;;;;;;;9.52;8.73;;;;;;;29.13;33.32;152379.84;5106211;28;20202;-50
2023/04/30 05:28:25;;;;;;;8.25;7.43;;;;;;;29.69;31.30;152520.03;5110307;28;20218;-48
2023/04/30 05:34:29;;;;;;;;;;;;;;;;;;;;;
2023/04/30 05:37:13;;;;;;;7.93;7.25;;;;;;;30.36;30.11;152689.63;5106335;28;20201;-49
2023/04/30 05:40:04;;;;;;;9.85;7.70;;;;;;;31.01;29.39;152852.81;5102482;28;20285;-49
2023/04/30 05:43:07;;;;;;;8.88;8.00;;;;;;;31.97;28.56;153095.25;5108341;28;20199;-48
2023/04/30 05:52:10;;;;;;;10.93;7.32;;;;;;;32.54;27.03;153236.94;5107710;28;20202;-50
2023/04/30 05:54:42;;;;;;;8.43;7.63;;;;;;;32.36;27.53;153192.28;5108648;28;20202;-52
2023/04/30 05:57:34;;;;;;;7.40;6.80;;;;;;;31.44;27.53;152961.25;5110197;28;20202;-48
2023/04/30 06:00:06;;;;;;;7.00;6.40;;;;;;;30.64;28.22;152759.75;5110323;28;20198;-49
2023/04/30 06:02:38;;;;;;;7.10;6.55;;;;;;;31.03;27.85;152859.22;5109746;28;20277;-50
2023/04/30 06:05:14;;;;;;;7.22;6.75;;;;;;;30.62;28.90;152755.91;5109020;28;20586;-48
2023/04/30 06:08:08;;;;;;;7.05;6.45;;;;;;;30.86;27.92;152814.56;5109372;28;20577;-49
2023/04/30 06:11:04;;;;;;;7.50;6.97;;;;;;;30.89;28.40;152822.22;5109637;28;20194;-49
2023/04/30 06:13:51;;;;;;;8.07;7.30;;;;;;;31.94;27.18;153087.56;5108763;28;20646;-48
2023/04/30 06:20:06;;;;;;;;;;;;;;;;;;;;;
2023/04/30 06:23:05;;;;;;;7.63;7.13;;;;;;;31.16;28.32;152891.09;5108381;28;20205;-55
2023/04/30 06:25:54;;;;;;;7.97;6.60;;;;;;;30.92;28.50;152831.16;5102592;28;20206;-52
2023/04/30 06:28:26;;;;;;;6.80;6.30;;;;;;;30.24;29.56;152659.00;5105799;28;20226;-48
2023/04/30 06:31:04;;;;;;;8.82;6.63;;;;;;;30.61;29.49;152752.09;5096582;28;20195;-48
2023/04/30 06:33:42;;;;;;;7.20;6.60;;;;;;;30.51;30.30;152727.81;5121398;27;20187;-49
2023/04/30 06:36:19;;;;;;;6.82;6.35;;;;;;;29.85;31.07;152562.09;5092694;28;20198;-49
2023/04/30 06:38:54;;;;;;;8.30;6.55;;;;;;;29.67;31.52;152514.97;5118728;27;20262;-48
2023/04/30 06:41:27;;;;;;;8.10;7.55;;;;;;;30.17;31.11;152642.41;5133602;27;20197;-50
2023/04/30 06:43:59;;;;;;;6.95;6.32;;;;;;;29.83;31.33;152555.72;5132434;27;20197;-48
2023/04/30 06:46:49;;;;;;;7.78;6.88;;;;;;;29.50;32.03;152474.16;5130254;27;20277;-51
2023/04/30 06:49:32;;;;;;;7.70;6.80;;;;;;;30.26;31.00;152665.34;5091748;28;20250;-50
2023/04/30 06:52:12;;;;;;;7.43;6.88;;;;;;;30.18;31.18;152644.97;5092788;28;20622;-48
2023/04/30 06:55:05;;;;;;;7.05;6.63;;;;;;;30.32;31.07;152680.69;5090664;28;20195;-50
2023/04/30 06:57:48;;;;;;;6.45;5.95;;;;;;;30.38;31.12;152693.38;5092810;27;20195;-50
2023/04/30 07:04:02;;;;;;;7.10;6.70;;;;;;;30.31;30.99;152676.84;5090252;28;20554;-48
2023/04/30 07:10:29;;;;;;;6.68;6.18;;;;;;;30.67;30.60;152768.69;5092239;28;20222;-48
2023/04/30 07:13:12;;;;;;;6.20;5.80;;;;;;;30.22;30.35;152655.19;5088947;28;20286;-49
2023/04/30 07:25:53;;;;;;;6.35;5.72;;;;;;;30.70;29.70;152775.03;5091716;28;20202;-52
2023/04/30 07:28:52;;;;;;;6.45;5.68;;;;;;;31.54;29.05;152985.50;5091473;28;20703;-52
2023/04/30 07:38:20;;;;;;;;;;;;;;;;;;;;;
2023/04/30 07:50:53;;;;;;;5.90;5.40;;;;;;;33.57;25.42;153496.19;5095827;28;20598;-55
2023/04/30 07:53:53;;;;;;;5.53;5.03;;;;;;;33.06;25.38;153368.47;5091409;28;20195;-54
2023/04/30 07:56:36;;;;;;;5.82;5.32;;;;;;;32.94;25.74;153339.13;5091521;28;20200;-54
2023/04/30 08:02:28;;;;;;;5.88;5.30;;;;;;;33.22;24.97;153409.31;5085747;28;20605;-54
2023/04/30 08:05:21;;;;;;;5.50;4.57;;;;;;;32.76;26.09;153293.13;5089348;28;20206;-52
2023/04/30 08:14:31;;;;;;;5.38;4.80;;;;;;;33.09;25.39;153377.38;5084884;28;20239;-53
2023/04/30 08:17:17;;;;;;;4.57;4.28;;;;;;;32.43;25.54;153210.13;5090525;28;20290;-52
2023/04/30 08:26:32;;;;;;;5.22;4.78;;;;;;;32.46;25.69;153219.09;5090720;28;20207;-49
2023/04/30 08:29:26;;;;;;;4.20;3.90;;;;;;;33.13;25.06;153387.59;5084554;28;20223;-53
2023/04/30 08:32:46;;;;;;;3.85;3.63;;;;;;;33.30;23.56;153428.47;5089584;28;20199;-53
2023/04/30 08:35:18;;;;;;;5.55;4.07;;;;;;;32.30;25.37;153176.94;5090353;28;20203;-51
2023/04/30 08:44:29;;;;;;;4.85;4.45;;;;;;;30.80;27.39;152800.56;5086776;28;20625;-51
2023/04/30 08:47:46;;;;;;;;;;;;;;;;;;;;;
2023/04/30 08:50:40;;;;;;;4.60;4.25;;;;;;;30.77;26.89;152791.63;5048035;28;20243;-52
2023/04/30 09:00:38;;;;;;;5.35;4.95;;;;;;;29.84;27.62;152558.25;5100540;28;20210;-50
2023/04/30 09:03:23;;;;;;;3.92;3.63;;;;;;;28.72;27.79;152276.66;5106430;28;20317;-52
2023/04/30 09:15:52;;;;;;;4.35;3.95;;;;;;;27.35;29.61;151934.16;5105940;28;20279;-51
2023/04/30 09:18:58;;;;;;;4.32;3.92;;;;;;;26.96;30.25;151834.94;5106804;28;20194;-47
2023/04/30 09:34:44;;;;;;;4.90;4.20;;;;;;;25.86;30.59;151558.88;5105072;28;20232;-48
2023/04/30 09:37:59;;;;;;;5.10;3.90;;;;;;;25.31;31.69;151422.84;5101676;28;20202;-51
2023/04/30 09:40:48;;;;;;;4.30;4.00;;;;;;;24.94;32.23;151328.84;5101890;28;20195;-50
2023/04/30 09:46:56;;;;;;;4.20;3.80;;;;;;;24.43;32.73;151201.75;5103593;28;20573;-52
2023/04/30 09:49:50;;;;;;;4.40;4.10;;;;;;;24.42;32.91;151197.94;5104264;28;20198;-52
2023/04/30 09:52:37;;;;;;;6.05;3.22;;;;;;;24.43;33.11;151201.75;5084632;28;20235;-52
2023/04/30 09:55:19;;;;;;;4.25;3.95;;;;;;;24.65;33.09;151255.09;5084965;28;20231;-52
2023/04/30 09:57:57;;;;;;;6.45;4.47;;;;;;;24.61;32.94;151246.19;5084979;28;20314;-52
2023/04/30 10:00:29;;;;;;;4.47;4.18;;;;;;;24.56;32.84;151234.78;5084543;28;20262;-47
2023/04/30 10:03:06;;;;;;;4.25;3.95;;;;;;;24.45;32.59;151206.84;5084159;28;20424;-48
2023/04/30 10:05:45;;;;;;;3.55;3.30;;;;;;;24.50;32.31;151218.25;5084366;28;20659;-47
2023/04/30 10:08:29;;;;;;;5.15;4.10;;;;;;;24.61;32.73;151247.47;5071487;28;20230;-48
2023/04/30 10:11:18;;;;;;;5.03;4.50;;;;;;;24.53;33.01;151227.16;5087214;28;20279;-52
2023/04/30 10:14:02;;;;;;;4.03;3.67;;;;;;;24.56;33.12;151234.78;5091648;28;20205;-52
2023/04/30 10:17:05;;;;;;;5.53;4.40;;;;;;;24.77;32.64;151285.59;5089534;28;20440;-52
2023/04/30 10:20:02;;;;;;;4.50;3.53;;;;;;;24.85;32.71;151305.91;5073074;28;20227;-51
2023/04/30 10:23:28;;;;;;;;;;;;;;;;;;;;;
2023/04/30 10:26:30;;;;;;;4.18;3.67;;;;;;;24.76;32.41;151283.03;5070854;28;20218;-48
2023/04/30 10:29:14;;;;;;;5.90;3.90;;;;;;;24.82;33.16;151298.31;5071080;28;20257;-48
2023/04/30 10:32:03;;;;;;;4.82;4.05;;;;;;;24.67;32.53;151261.47;5076454;28;20226;-48
2023/04/30 10:34:56;;;;;;;4.05;3.75;;;;;;;24.46;33.65;151209.41;5070407;28;20223;-52
2023/04/30 10:37:48;;;;;;;5.05;4.53;;;;;;;24.63;33.05;151251.28;5070987;28;20583;-52
2023/04/30 10:40:33;;;;;;;8.25;4.88;;;;;;;24.63;33.42;151250.00;5071168;28;20223;-54
2023/04/30 10:43:12;;;;;;;5.68;4.30;;;;;;;24.90;33.46;151319.91;5070498;28;20224;-53
2023/04/30 10:45:51;;;;;;;4.25;3.80;;;;;;;25.27;32.33;151411.44;5074679;28;20303;-53
2023/04/30 10:48:29;;;;;;;6.50;3.80;;;;;;;25.30;32.46;151419.03;5087853;28;20779;-51
2023/04/30 10:51:00;;;;;;;4.88;3.63;;;;;;;25.17;32.59;151387.25;5080183;28;20221;-52
2023/04/30 10:53:39;;;;;;;4.20;3.70;;;;;;;25.20;32.88;151393.63;5088491;28;20771;-52
2023/04/30 10:56:14;;;;;;;8.25;4.63;;;;;;;24.98;33.37;151339.00;5090047;28;20230;-50
2023/04/30 10:58:46;;;;;;;7.40;6.70;;;;;;;24.72;33.70;151272.91;5089804;28;20228;-48
2023/04/30 11:01:22;;;;;;;7.32;5.72;;;;;;;24.71;34.17;151271.66;5088728;28;20302;-46
2023/04/30 11:04:14;;;;;;;9.45;5.55;;;;;;;24.68;35.18;151264.00;5089914;28;20242;-47
2023/04/30 11:07:05;;;;;;;6.35;4.68;;;;;;;24.61;34.86;151247.47;5088442;28;20215;-48
2023/04/30 11:09:50;;;;;;;6.57;3.83;;;;;;;24.77;34.42;151285.59;5089849;28;20226;-48
2023/04/30 11:12:33;;;;;;;4.18;3.78;;;;;;;24.67;34.75;151260.19;5089492;28;20215;-48
2023/04/30 11:15:26;;;;;;;4.18;3.88;;;;;;;24.69;34.57;151265.28;5089005;28;20722;-51
2023/04/30 11:18:04;;;;;;;4.78;4.25;;;;;;;24.78;34.71;151289.41;5088487;28;20227;-52
2023/04/30 11:20:50;;;;;;;4.07;3.78;;;;;;;24.31;34.76;151170.00;5089500;28;20224;-47
2023/04/30 11:23:40;;;;;;;4.13;3.58;;;;;;;24.07;35.19;151111.53;5090799;28;20223;-49
2023/04/30 11:26:13;;;;;;;4.28;3.88;;;;;;;24.08;35.02;151112.81;5089741;28;20211;-48
2023/04/30 11:28:54;;;;;;;6.13;3.90;;;;;;;24.09;35.24;151116.63;5087089;28;20222;-47
2023/04/30 11:31:38;;;;;;;3.88;3.63;;;;;;;24.01;35.37;151096.34;5087656;28;20223;-48
2023/04/30 11:34:19;;;;;;;3.97;3.63;;;;;;;24.13;34.94;151126.81;5071006;28;20234;-48
2023/04/30 11:37:12;;;;;;;3.97;3.78;;;;;;;24.17;35.05;151135.66;5084243;28;20219;-48
2023/04/30 11:39:45;;;;;;;4.93;4.53;;;;;;;24.30;35.07;151167.47;5088790;28;20290;-52
2023/04/30 11:42:47;;;;;;;4.90;4.60;;;;;;;24.48;34.30;151213.22;5090280;28;20210;-47
2023/04/30 11:46:09;;;;;;;6.00;4.80;;;;;;;24.45;34.13;151206.84;5089939;28;20187;-48
2023/04/30 11:51:55;;;;;;;5.20;3.80;;;;;;;24.55;33.91;151232.25;5082137;28;20302;-52
2023/04/30 11:54:36;;;;;;;5.97;5.35;;;;;;;24.44;34.04;151204.31;5071962;28;20203;-48
2023/04/30 11:57:05;;;;;;;4.95;4.53;;;;;;;24.48;34.13;151214.47;5079034;28;20281;-49
2023/04/30 11:59:44;;;;;;;9.05;5.45;;;;;;;24.67;33.88;151260.19;5089654;28;20191;-53
2023/04/30 12:02:30;;;;;;;11.88;9.50;;;;;;;24.83;33.55;151302.09;5087996;28;20276;-53
2023/04/30 12:05:14;;;;;;;5.28;4.30;;;;;;;24.64;34.06;151252.56;5089282;28;20203;-53
2023/04/30 12:07:50;;;;;;;4.15;3.92;;;;;;;24.29;34.64;151166.19;5089417;28;20192;-52
2023/04/30 12:10:28;;;;;;;4.32;4.00;;;;;;;24.10;34.69;151117.91;5085518;28;20401;-48
2023/04/30 12:13:09;;;;;;;3.70;3.50;;;;;;;24.08;34.96;151112.81;5087489;28;20225;-48
2023/04/30 12:15:48;;;;;;;4.10;3.80;;;;;;;23.86;35.25;151059.50;5089853;28;20227;-52
2023/04/30 12:18:19;;;;;;;4.30;3.97;;;;;;;23.78;35.28;151039.22;5090248;28;20803;-51
2023/04/30 12:20:52;;;;;;;4.22;3.92;;;;;;;23.84;35.21;151054.41;5089494;28;20203;-48
2023/04/30 12:23:26;;;;;;;4.05;3.83;;;;;;;23.97;35.01;151086.16;5088403;28;20274;-48
2023/04/30 12:26:04;;;;;;;3.72;3.42;;;;;;;23.97;34.85;151086.16;5086562;28;20226;-49
2023/04/30 12:28:46;;;;;;;4.18;3.78;;;;;;;23.83;36.31;151050.59;5086269;28;20382;-49
2023/04/30 12:31:14;;;;;;;14.35;4.88;;;;;;;23.38;42.32;150938.84;5086318;28;20668;-48
2023/04/30 12:34:27;;;;;;;11.73;4.50;;;;;;;22.88;48.21;150813.25;5088877;28;20206;-49
2023/04/30 12:37:26;;;;;;;10.48;4.80;;;;;;;21.92;57.79;150572.16;5088188;28;20226;-47
2023/04/30 12:40:03;;;;;;;8.73;4.85;;;;;;;20.93;62.08;150324.97;5083382;28;20203;-51
2023/04/30 12:42:47;;;;;;;13.93;5.50;;;;;;;20.51;70.09;150221.09;5088828;28;20195;-51
2023/04/30 12:45:47;;;;;;;12.77;7.30;;;;;;;19.91;73.61;150070.34;5087987;28;20223;-51
2023/04/30 12:48:17;;;;;;;19.35;10.23;;;;;;;19.65;81.54;150004.47;5089229;28;20187;-52
2023/04/30 12:51:03;;;;;;;6.72;5.18;;;;;;;19.25;73.15;149905.72;5089181;28;20264;-52
2023/04/30 12:53:34;;;;;;;4.43;3.67;;;;;;;18.89;81.26;149815.88;5087934;28;20187;-52
2023/04/30 12:56:28;;;;;;;4.05;3.75;;;;;;;18.62;78.46;149748.84;5087210;28;20227;-47
2023/04/30 12:58:58;;;;;;;5.95;3.83;;;;;;;18.56;81.05;149732.34;5087377;28;20597;-47
2023/04/30 13:01:36;;;;;;;5.03;4.45;;;;;;;18.67;82.30;149761.47;5089655;28;20235;-48
2023/04/30 13:04:36;;;;;;;4.90;4.40;;;;;;;18.78;87.86;149788.03;5088172;28;20209;-47
2023/04/30 13:07:19;;;;;;;3.90;3.67;;;;;;;18.78;79.63;149789.31;5088399;28;20281;-50
2023/04/30 13:10:12;;;;;;;3.40;3.10;;;;;;;18.81;80.20;149796.91;5089321;28;20203;-51
2023/04/30 13:12:44;;;;;;;4.18;3.42;;;;;;;18.82;80.37;149799.47;5089040;28;20286;-51
2023/04/30 13:15:14;;;;;;;3.58;3.28;;;;;;;18.65;80.09;149755.16;5089639;28;20195;-51
2023/04/30 13:17:46;;;;;;;4.00;3.60;;;;;;;18.56;85.87;149733.59;5086506;28;20223;-51
2023/04/30 13:20:23;;;;;;;8.00;5.30;;;;;;;18.31;100.00;149670.34;5087950;28;20231;-52
2023/04/30 13:22:58;;;;;;;9.60;6.50;;;;;;;17.96;100.00;149584.38;5088461;28;20327;-51
2023/04/30 13:25:32;;;;;;;5.03;4.60;;;;;;;17.77;100.00;149536.34;5089164;28;20260;-51
2023/04/30 13:28:06;;;;;;;5.90;4.50;;;;;;;17.76;100.00;149533.78;5089317;28;20218;-51
2023/04/30 13:30:34;;;;;;;5.40;4.07;;;;;;;17.70;97.55;149518.66;5085293;28;20209;-50
2023/04/30 13:33:08;;;;;;;18.90;5.70;;;;;;;17.52;100.00;149473.06;5069852;28;20222;-52
2023/04/30 13:35:45;;;;;;;5.77;5.17;;;;;;;17.35;100.00;149432.66;5068760;28;20585;-52
2023/04/30 13:38:57;;;;;;;6.07;5.37;;;;;;;17.07;100.00;149361.84;5068078;28;20223;-51
2023/04/30 13:41:38;;;;;;;11.23;5.73;;;;;;;16.88;100.00;149313.84;5068467;28;20307;-51
2023/04/30 13:44:18;;;;;;;5.30;4.80;;;;;;;16.82;100.00;149298.66;5072139;28;20688;-51
2023/04/30 13:46:57;;;;;;;5.43;4.20;;;;;;;16.82;100.00;149299.94;5071044;28;20223;-51
2023/04/30 13:49:36;;;;;;;6.20;4.90;;;;;;;16.87;100.00;149311.31;5071536;28;20246;-52
2023/04/30 13:52:26;;;;;;;4.37;3.97;;;;;;;16.99;100.00;149341.66;5071989;28;20216;-51
2023/04/30 13:54:59;;;;;;;5.33;4.83;;;;;;;17.08;100.00;149364.38;5085641;28;20235;-46
2023/04/30 13:57:45;;;;;;;6.03;5.53;;;;;;;17.24;100.00;149404.84;5091962;28;20245;-53
2023/04/30 14:00:28;;;;;;;7.20;5.17;;;;;;;17.44;100.00;149454.13;5091045;28;20223;-51
2023/04/30 14:03:05;;;;;;;5.70;5.20;;;;;;;17.64;100.00;149503.44;5091370;28;20219;-51
2023/04/30 14:05:50;;;;;;;5.77;5.10;;;;;;;17.91;100.00;149571.75;5090817;28;20313;-51
2023/04/30 14:08:29;;;;;;;4.97;4.63;;;;;;;18.02;98.75;149598.28;5091473;28;20610;-47
2023/04/30 14:11:04;;;;;;;10.53;4.37;;;;;;;18.19;89.92;149640.00;5091495;28;20226;-46
2023/04/30 14:16:30;;;;;;;4.40;4.03;;;;;;;18.39;87.60;149690.63;5089640;28;20231;-48
2023/04/30 14:19:01;;;;;;;4.47;4.28;;;;;;;18.43;90.30;149701.97;5083697;28;20224;-51
2023/04/30 14:21:30;;;;;;;5.13;4.82;;;;;;;18.51;90.35;149720.94;5071301;28;20228;-48
2023/04/30 14:24:06;;;;;;;10.07;7.13;;;;;;;18.51;98.54;149722.19;5089249;28;20199;-52
2023/04/30 14:27:02;;;;;;;5.70;5.23;;;;;;;18.51;98.91;149722.19;5091003;28;20576;-47
2023/04/30 14:29:56;;;;;;;6.50;5.50;;;;;;;18.54;99.01;149727.28;5088486;28;20688;-48
2023/04/30 14:32:53;;;;;;;5.80;5.20;;;;;;;18.51;99.82;149720.94;5092157;28;20667;-46
2023/04/30 14:35:56;;;;;;;4.93;4.63;;;;;;;18.42;100.00;149698.19;5091372;28;20191;-47
2023/04/30 14:45:01;;;;;;;6.97;6.28;;;;;;;18.66;100.00;149758.94;5091758;28;20207;-51
2023/04/30 14:48:01;;;;;;;6.07;5.57;;;;;;;18.84;95.39;149803.25;5091859;28;20191;-47
2023/04/30 14:53:39;;;;;;;6.35;4.93;;;;;;;18.99;92.15;149839.91;5091175;28;20675;-51
2023/04/30 14:56:42;;;;;;;;;;;;;;;;;;;;;
2023/04/30 15:05:33;;;;;;;4.80;4.47;;;;;;;19.22;89.03;149898.13;5091264;28;20207;-48
2023/04/30 15:08:31;;;;;;;5.40;4.85;;;;;;;19.40;87.36;149942.44;5090873;28;20275;-51
2023/04/30 15:11:40;;;;;;;4.63;4.30;;;;;;;19.51;84.87;149971.63;5091460;28;20289;-49
2023/04/30 15:24:08;;;;;;;4.82;4.47;;;;;;;19.47;77.08;149961.41;5089227;28;20202;-47
2023/04/30 15:26:54;;;;;;;5.70;5.30;;;;;;;19.55;75.54;149981.72;5081377;28;20231;-52
2023/04/30 15:29:25;;;;;;;5.03;4.65;;;;;;;19.57;74.54;149985.50;5070436;28;20207;-52
2023/04/30 15:32:22;;;;;;;4.45;4.00;;;;;;;19.48;69.74;149964.00;5090273;28;20577;-48
2023/04/30 15:38:11;;;;;;;3.40;3.20;;;;;;;19.40;66.09;149942.44;5090401;28;20757;-48
2023/04/30 15:41:06;;;;;;;2.95;2.85;;;;;;;19.47;64.76;149961.41;5090092;28;20671;-47
2023/04/30 15:44:01;;;;;;;4.05;2.80;;;;;;;19.46;64.48;149958.88;5090756;28;20208;-47
2023/04/30 15:46:46;;;;;;;3.78;2.88;;;;;;;19.47;64.35;149961.41;5089489;28;20691;-52
2023/04/30 15:49:31;;;;;;;4.55;3.28;;;;;;;19.57;64.96;149986.78;5090699;28;20249;-52
2023/04/30 15:52:30;;;;;;;4.53;4.00;;;;;;;19.62;64.38;149996.94;5090541;28;20238;-51
2023/04/30 15:55:05;;;;;;;4.50;4.13;;;;;;;19.57;64.12;149986.78;5088013;28;20223;-48
2023/04/30 15:58:00;;;;;;;4.22;3.80;;;;;;;19.57;62.76;149985.50;5070622;28;20333;-52
2023/04/30 16:00:52;;;;;;;5.40;3.63;;;;;;;19.55;63.21;149981.72;5085483;28;20195;-52
2023/04/30 16:03:36;;;;;;;3.75;3.55;;;;;;;19.51;63.47;149970.34;5089760;28;20591;-52
2023/04/30 16:06:28;;;;;;;4.10;3.80;;;;;;;19.45;63.41;149956.34;5090189;28;20196;-47
2023/04/30 16:09:16;;;;;;;4.93;3.85;;;;;;;19.37;62.97;149936.13;5090143;28;20196;-49
2023/04/30 16:11:46;;;;;;;4.03;3.70;;;;;;;19.39;63.70;149939.91;5089043;28;20195;-50
2023/04/30 16:14:26;;;;;;;3.92;3.53;;;;;;;19.44;63.64;149953.81;5089762;28;20686;-50
2023/04/30 16:17:13;;;;;;;4.20;3.90;;;;;;;19.52;64.92;149974.16;5087945;28;20215;-50
2023/04/30 16:19:58;;;;;;;4.88;4.53;;;;;;;19.58;63.53;149988.03;5089960;28;20558;-49
2023/04/30 16:22:45;;;;;;;4.82;4.43;;;;;;;19.64;64.12;150003.22;5088789;28;20202;-49
2023/04/30 16:25:22;;;;;;;10.35;4.45;;;;;;;19.68;65.56;150013.38;5085272;28;20234;-49
2023/04/30 16:28:01;;;;;;;5.65;5.20;;;;;;;19.66;65.29;150008.28;5072411;28;20199;-53
2023/04/30 16:30:46;;;;;;;5.57;5.00;;;;;;;19.64;64.56;150003.22;5069452;28;20294;-48
2023/04/30 16:33:18;;;;;;;5.10;4.70;;;;;;;19.67;66.17;150009.56;5069367;28;20196;-52
2023/04/30 16:35:54;;;;;;;5.45;4.95;;;;;;;19.55;65.92;149981.72;5078446;28;20211;-53
2023/04/30 16:38:52;;;;;;;5.78;4.63;;;;;;;19.51;67.54;149971.63;5084328;28;20225;-52
2023/04/30 16:41:29;;;;;;;4.82;4.30;;;;;;;19.53;66.59;149976.63;5089114;28;20683;-51
2023/04/30 16:44:06;;;;;;;4.70;3.45;;;;;;;19.51;66.75;149970.34;5089177;28;20229;-48
2023/04/30 16:46:35;;;;;;;4.53;4.03;;;;;;;19.42;63.97;149948.75;5088896;28;20763;-51
2023/04/30 16:49:03;;;;;;;4.85;4.40;;;;;;;19.39;58.98;149941.19;5089640;28;20282;-50
2023/04/30 16:51:36;;;;;;;10.25;6.07;;;;;;;19.26;67.74;149907.00;5087484;28;20211;-51
2023/04/30 16:54:05;;;;;;;4.93;4.30;;;;;;;18.88;74.28;149812.09;5088337;28;20199;-49
2023/04/30 16:56:47;;;;;;;4.25;3.95;;;;;;;18.52;79.52;149724.72;5068164;28;20596;-49
2023/04/30 16:59:35;;;;;;;4.38;3.97;;;;;;;18.34;77.89;149677.94;5074273;28;20207;-50
2023/04/30 17:02:08;;;;;;;4.30;3.90;;;;;;;18.15;79.53;149631.19;5089204;28;20246;-50
2023/04/30 17:04:51;;;;;;;5.90;3.50;;;;;;;18.03;81.74;149600.81;5089401;28;20198;-50
2023/04/30 17:07:45;;;;;;;4.60;4.30;;;;;;;17.85;82.28;149555.28;5078670;28;20203;-53
2023/04/30 17:10:47;;;;;;;5.70;4.90;;;;;;;17.67;83.11;149511.06;5089336;28;20200;-50
2023/04/30 17:13:43;;;;;;;4.17;3.77;;;;;;;17.59;82.92;149492.06;5090615;28;20735;-56
2023/04/30 17:19:25;;;;;;;4.00;3.80;;;;;;;17.34;81.60;149430.13;5092960;28;20202;-56